sensor_id;sensor_type;location;lat;lon;timestamp;temperature;humidity
39219;DHT22;24934;52.752;6.964;2023-09-12T00:02:20;19.00;99.90
39219;DHT22;24934;52.752;6.964;2023-09-12T00:04:46;19.00;99.90
39219;DHT22;24934;52.752;6.964;2023-09-12T00:07:12;19.00;99.90
39219;DHT22;24934;52.752;6.964;2023-09-12T00:09:38;18.90;99.90
39219;DHT22;24934;52.752;6.964;2023-09-12T00:12:07;19.00;99.90
39219;DHT22;24934;52.752;6.964;2023-09-12T00:14:33;18.90;99.90
39219;DHT22;24934;52.752;6.964;2023-09-12T00:17:01;19.00;99.90
39219;DHT22;24934;52.752;6.964;2023-09-12T00:19:30;18.90;99.90
39219;DHT22;24934;52.752;6.964;2023-09-12T00:21:56;18.90;99.90
39219;DHT22;24934;52.752;6.964;2023-09-12T00:24:21;18.90;99.90
39219;DHT22;24934;52.752;6.964;2023-09-12T00:26:47;18.80;99.90
39219;DHT22;24934;52.752;6.964;2023-09-12T00:29:13;18.90;99.90
39219;DHT22;24934;52.752;6.964;2023-09-12T00:31:41;18.90;99.90
39219;DHT22;24934;52.752;6.964;2023-09-12T00:34:07;18.90;99.90
39219;DHT22;24934;52.752;6.964;2023-09-12T00:36:33;19.00;99.90
39219;DHT22;24934;52.752;6.964;2023-09-12T00:38:58;19.00;99.90
39219;DHT22;24934;52.752;6.964;2023-09-12T00:41:24;19.00;99.90
39219;DHT22;24934;52.752;6.964;2023-09-12T00:43:50;19.00;99.90
39219;DHT22;24934;52.752;6.964;2023-09-12T00:46:21;18.90;99.90
39219;DHT22;24934;52.752;6.964;2023-09-12T00:48:48;18.80;99.90
39219;DHT22;24934;52.752;6.964;2023-09-12T00:51:15;18.80;99.90
39219;DHT22;24934;52.752;6.964;2023-09-12T00:53:42;18.70;99.90
39219;DHT22;24934;52.752;6.964;2023-09-12T00:56:08;18.70;99.90
39219;DHT22;24934;52.752;6.964;2023-09-12T00:58:34;18.70;99.90
39219;DHT22;24934;52.752;6.964;2023-09-12T01:01:00;18.70;99.90
39219;DHT22;24934;52.752;6.964;2023-09-12T01:03:27;18.70;99.90
39219;DHT22;24934;52.752;6.964;2023-09-12T01:05:53;18.60;99.90
39219;DHT22;24934;52.752;6.964;2023-09-12T01:08:19;18.60;99.90
39219;DHT22;24934;52.752;6.964;2023-09-12T01:10:47;18.60;99.90
39219;DHT22;24934;52.752;6.964;2023-09-12T01:13:14;18.60;99.90
39219;DHT22;24934;52.752;6.964;2023-09-12T01:15:41;18.60;99.90
39219;DHT22;24934;52.752;6.964;2023-09-12T01:18:07;18.60;99.90
39219;DHT22;24934;52.752;6.964;2023-09-12T01:20:35;18.60;99.90
39219;DHT22;24934;52.752;6.964;2023-09-12T01:26:39;18.50;99.90
39219;DHT22;24934;52.752;6.964;2023-09-12T01:29:06;18.40;99.90
39219;DHT22;24934;52.752;6.964;2023-09-12T01:31:36;18.30;99.90
39219;DHT22;24934;52.752;6.964;2023-09-12T01:34:12;18.30;99.90
39219;DHT22;24934;52.752;6.964;2023-09-12T01:36:38;18.30;99.90
39219;DHT22;24934;52.752;6.964;2023-09-12T01:39:04;18.30;99.90
39219;DHT22;24934;52.752;6.964;2023-09-12T01:41:31;18.30;99.90
39219;DHT22;24934;52.752;6.964;2023-09-12T01:44:00;18.30;99.90
39219;DHT22;24934;52.752;6.964;2023-09-12T01:46:27;18.20;99.90
39219;DHT22;24934;52.752;6.964;2023-09-12T01:48:54;18.30;99.90
39219;DHT22;24934;52.752;6.964;2023-09-12T01:51:22;18.20;99.90
39219;DHT22;24934;52.752;6.964;2023-09-12T01:53:49;18.20;99.90
39219;DHT22;24934;52.752;6.964;2023-09-12T01:56:17;18.20;99.90
39219;DHT22;24934;52.752;6.964;2023-09-12T01:58:44;18.20;99.90
39219;DHT22;24934;52.752;6.964;2023-09-12T02:01:11;18.10;99.90
39219;DHT22;24934;52.752;6.964;2023-09-12T02:03:37;18.20;99.90
39219;DHT22;24934;52.752;6.964;2023-09-12T02:06:02;18.20;99.90
39219;DHT22;24934;52.752;6.964;2023-09-12T02:08:28;18.20;99.90
39219;DHT22;24934;52.752;6.964;2023-09-12T02:10:54;18.20;99.90
39219;DHT22;24934;52.752;6.964;2023-09-12T02:13:20;18.20;99.90
39219;DHT22;24934;52.752;6.964;2023-09-12T02:15:45;18.20;99.90
39219;DHT22;24934;52.752;6.964;2023-09-12T02:18:11;18.10;99.90
39219;DHT22;24934;52.752;6.964;2023-09-12T02:20:41;18.10;99.90
39219;DHT22;24934;52.752;6.964;2023-09-12T02:23:07;18.00;99.90
39219;DHT22;24934;52.752;6.964;2023-09-12T02:25:32;18.00;99.90
39219;DHT22;24934;52.752;6.964;2023-09-12T02:27:58;18.00;99.90
39219;DHT22;24934;52.752;6.964;2023-09-12T02:30:23;18.10;99.90
39219;DHT22;24934;52.752;6.964;2023-09-12T02:32:49;18.00;99.90
39219;DHT22;24934;52.752;6.964;2023-09-12T02:35:15;18.10;99.90
39219;DHT22;24934;52.752;6.964;2023-09-12T02:37:43;18.00;99.90
39219;DHT22;24934;52.752;6.964;2023-09-12T02:40:09;18.00;99.90
39219;DHT22;24934;52.752;6.964;2023-09-12T02:42:37;18.00;99.90
39219;DHT22;24934;52.752;6.964;2023-09-12T02:45:03;18.00;99.90
39219;DHT22;24934;52.752;6.964;2023-09-12T02:47:29;18.10;99.90
39219;DHT22;24934;52.752;6.964;2023-09-12T02:49:55;18.20;99.90
39219;DHT22;24934;52.752;6.964;2023-09-12T02:52:21;18.20;99.90
39219;DHT22;24934;52.752;6.964;2023-09-12T02:54:46;18.20;99.90
39219;DHT22;24934;52.752;6.964;2023-09-12T02:57:12;18.20;99.90
39219;DHT22;24934;52.752;6.964;2023-09-12T02:59:38;18.10;99.90
39219;DHT22;24934;52.752;6.964;2023-09-12T03:02:03;18.10;99.90
39219;DHT22;24934;52.752;6.964;2023-09-12T03:04:29;18.10;99.90
39219;DHT22;24934;52.752;6.964;2023-09-12T03:06:55;18.10;99.90
39219;DHT22;24934;52.752;6.964;2023-09-12T03:09:21;18.10;99.90
39219;DHT22;24934;52.752;6.964;2023-09-12T03:11:49;18.10;99.90
39219;DHT22;24934;52.752;6.964;2023-09-12T03:14:14;18.00;99.90
39219;DHT22;24934;52.752;6.964;2023-09-12T03:16:40;18.00;99.90
39219;DHT22;24934;52.752;6.964;2023-09-12T03:19:06;18.00;99.90
39219;DHT22;24934;52.752;6.964;2023-09-12T03:21:31;18.00;99.90
39219;DHT22;24934;52.752;6.964;2023-09-12T03:23:57;18.10;99.90
39219;DHT22;24934;52.752;6.964;2023-09-12T03:26:23;18.10;99.90
39219;DHT22;24934;52.752;6.964;2023-09-12T03:28:52;18.10;99.90
39219;DHT22;24934;52.752;6.964;2023-09-12T03:31:18;18.10;99.90
39219;DHT22;24934;52.752;6.964;2023-09-12T03:33:44;18.10;99.90
39219;DHT22;24934;52.752;6.964;2023-09-12T03:36:16;18.10;99.90
39219;DHT22;24934;52.752;6.964;2023-09-12T03:38:42;18.10;99.90
39219;DHT22;24934;52.752;6.964;2023-09-12T03:41:08;18.10;99.90
39219;DHT22;24934;52.752;6.964;2023-09-12T03:43:33;18.10;99.90
39219;DHT22;24934;52.752;6.964;2023-09-12T03:45:59;18.20;99.90
39219;DHT22;24934;52.752;6.964;2023-09-12T03:48:29;18.20;99.90
39219;DHT22;24934;52.752;6.964;2023-09-12T03:50:56;18.20;99.90
39219;DHT22;24934;52.752;6.964;2023-09-12T03:53:21;18.20;99.90
39219;DHT22;24934;52.752;6.964;2023-09-12T03:55:47;18.20;99.90
39219;DHT22;24934;52.752;6.964;2023-09-12T03:58:13;18.20;99.90
39219;DHT22;24934;52.752;6.964;2023-09-12T04:00:38;18.20;99.90
39219;DHT22;24934;52.752;6.964;2023-09-12T04:03:04;18.10;99.90
39219;DHT22;24934;52.752;6.964;2023-09-12T04:05:30;18.20;99.90
39219;DHT22;24934;52.752;6.964;2023-09-12T04:07:55;18.00;99.90
39219;DHT22;24934;52.752;6.964;2023-09-12T04:10:23;18.00;99.90
39219;DHT22;24934;52.752;6.964;2023-09-12T04:12:49;18.10;99.90
39219;DHT22;24934;52.752;6.964;2023-09-12T04:15:15;18.10;99.90
39219;DHT22;24934;52.752;6.964;2023-09-12T04:17:43;18.10;99.90
39219;DHT22;24934;52.752;6.964;2023-09-12T04:20:09;18.10;99.90
39219;DHT22;24934;52.752;6.964;2023-09-12T04:22:35;18.10;99.90
39219;DHT22;24934;52.752;6.964;2023-09-12T04:25:01;18.10;99.90
39219;DHT22;24934;52.752;6.964;2023-09-12T04:27:26;18.10;99.90
39219;DHT22;24934;52.752;6.964;2023-09-12T04:29:52;18.10;99.90
39219;DHT22;24934;52.752;6.964;2023-09-12T04:32:17;18.10;99.90
39219;DHT22;24934;52.752;6.964;2023-09-12T04:34:49;18.00;99.90
39219;DHT22;24934;52.752;6.964;2023-09-12T04:37:14;18.00;99.90
39219;DHT22;24934;52.752;6.964;2023-09-12T04:39:40;18.00;99.90
39219;DHT22;24934;52.752;6.964;2023-09-12T04:42:05;17.90;99.90
39219;DHT22;24934;52.752;6.964;2023-09-12T04:44:39;17.90;99.90
39219;DHT22;24934;52.752;6.964;2023-09-12T04:47:05;17.80;99.90
39219;DHT22;24934;52.752;6.964;2023-09-12T04:49:30;17.80;99.90
39219;DHT22;24934;52.752;6.964;2023-09-12T04:51:56;17.80;99.90
39219;DHT22;24934;52.752;6.964;2023-09-12T04:54:22;17.80;99.90
39219;DHT22;24934;52.752;6.964;2023-09-12T04:56:47;17.80;99.90
39219;DHT22;24934;52.752;6.964;2023-09-12T04:59:13;17.80;99.90
39219;DHT22;24934;52.752;6.964;2023-09-12T05:01:39;17.80;99.90
39219;DHT22;24934;52.752;6.964;2023-09-12T05:04:04;17.80;99.90
39219;DHT22;24934;52.752;6.964;2023-09-12T05:06:30;17.80;99.90
39219;DHT22;24934;52.752;6.964;2023-09-12T05:08:56;17.80;99.90
39219;DHT22;24934;52.752;6.964;2023-09-12T05:11:24;17.70;99.90
39219;DHT22;24934;52.752;6.964;2023-09-12T05:13:50;17.70;99.90
39219;DHT22;24934;52.752;6.964;2023-09-12T05:16:16;17.80;99.90
39219;DHT22;24934;52.752;6.964;2023-09-12T05:18:42;17.70;99.90
39219;DHT22;24934;52.752;6.964;2023-09-12T05:21:08;17.70;99.90
39219;DHT22;24934;52.752;6.964;2023-09-12T05:23:33;17.70;99.90
39219;DHT22;24934;52.752;6.964;2023-09-12T05:25:59;17.70;99.90
39219;DHT22;24934;52.752;6.964;2023-09-12T05:28:25;17.70;99.90
39219;DHT22;24934;52.752;6.964;2023-09-12T05:30:50;17.60;99.90
39219;DHT22;24934;52.752;6.964;2023-09-12T05:33:16;17.70;99.90
39219;DHT22;24934;52.752;6.964;2023-09-12T05:35:42;17.70;99.90
39219;DHT22;24934;52.752;6.964;2023-09-12T05:38:09;17.60;99.90
39219;DHT22;24934;52.752;6.964;2023-09-12T05:40:35;17.60;99.90
39219;DHT22;24934;52.752;6.964;2023-09-12T05:43:01;17.70;99.90
39219;DHT22;24934;52.752;6.964;2023-09-12T05:45:27;17.70;99.90
39219;DHT22;24934;52.752;6.964;2023-09-12T05:47:55;17.60;99.90
39219;DHT22;24934;52.752;6.964;2023-09-12T05:50:20;17.70;99.90
39219;DHT22;24934;52.752;6.964;2023-09-12T05:52:46;17.70;99.90
39219;DHT22;24934;52.752;6.964;2023-09-12T05:55:11;17.70;99.90
39219;DHT22;24934;52.752;6.964;2023-09-12T05:57:37;17.70;99.90
39219;DHT22;24934;52.752;6.964;2023-09-12T06:00:03;17.80;99.90
39219;DHT22;24934;52.752;6.964;2023-09-12T06:02:35;17.80;99.90
39219;DHT22;24934;52.752;6.964;2023-09-12T06:05:01;17.80;99.90
39219;DHT22;24934;52.752;6.964;2023-09-12T06:07:27;17.80;99.90
39219;DHT22;24934;52.752;6.964;2023-09-12T06:09:52;17.90;99.90
39219;DHT22;24934;52.752;6.964;2023-09-12T06:12:18;17.90;99.90
39219;DHT22;24934;52.752;6.964;2023-09-12T06:14:46;17.80;99.90
39219;DHT22;24934;52.752;6.964;2023-09-12T06:17:12;17.80;99.90
39219;DHT22;24934;52.752;6.964;2023-09-12T06:19:38;17.80;99.90
39219;DHT22;24934;52.752;6.964;2023-09-12T06:22:05;17.80;99.90
39219;DHT22;24934;52.752;6.964;2023-09-12T06:24:30;17.70;99.90
39219;DHT22;24934;52.752;6.964;2023-09-12T06:26:59;17.80;99.90
39219;DHT22;24934;52.752;6.964;2023-09-12T06:29:27;17.80;99.90
39219;DHT22;24934;52.752;6.964;2023-09-12T06:31:53;17.80;99.90
39219;DHT22;24934;52.752;6.964;2023-09-12T06:34:24;17.90;99.90
39219;DHT22;24934;52.752;6.964;2023-09-12T06:36:50;17.90;99.90
39219;DHT22;24934;52.752;6.964;2023-09-12T06:39:15;18.00;99.90
39219;DHT22;24934;52.752;6.964;2023-09-12T06:41:41;18.00;99.90
39219;DHT22;24934;52.752;6.964;2023-09-12T06:44:06;18.10;99.90
39219;DHT22;24934;52.752;6.964;2023-09-12T06:46:33;18.10;99.90
39219;DHT22;24934;52.752;6.964;2023-09-12T06:49:02;18.20;99.90
39219;DHT22;24934;52.752;6.964;2023-09-12T06:51:28;18.30;99.90
39219;DHT22;24934;52.752;6.964;2023-09-12T06:53:54;18.30;99.90
39219;DHT22;24934;52.752;6.964;2023-09-12T06:56:19;18.40;99.90
39219;DHT22;24934;52.752;6.964;2023-09-12T06:58:47;18.60;99.90
39219;DHT22;24934;52.752;6.964;2023-09-12T07:01:12;18.90;99.90
39219;DHT22;24934;52.752;6.964;2023-09-12T07:03:38;19.20;99.90
39219;DHT22;24934;52.752;6.964;2023-09-12T07:06:04;19.30;99.90
39219;DHT22;24934;52.752;6.964;2023-09-12T07:08:31;19.50;99.90
39219;DHT22;24934;52.752;6.964;2023-09-12T07:10:58;19.80;99.90
39219;DHT22;24934;52.752;6.964;2023-09-12T07:13:25;20.00;99.90
39219;DHT22;24934;52.752;6.964;2023-09-12T07:15:51;20.20;99.90
39219;DHT22;24934;52.752;6.964;2023-09-12T07:18:17;20.10;99.90
39219;DHT22;24934;52.752;6.964;2023-09-12T07:20:45;20.00;99.90
39219;DHT22;24934;52.752;6.964;2023-09-12T07:23:11;19.90;99.90
39219;DHT22;24934;52.752;6.964;2023-09-12T07:25:41;20.00;99.90
39219;DHT22;24934;52.752;6.964;2023-09-12T07:28:08;19.90;99.90
39219;DHT22;24934;52.752;6.964;2023-09-12T07:30:34;19.70;99.90
39219;DHT22;24934;52.752;6.964;2023-09-12T07:33:00;19.60;99.90
39219;DHT22;24934;52.752;6.964;2023-09-12T07:35:25;19.50;99.90
39219;DHT22;24934;52.752;6.964;2023-09-12T07:37:52;19.40;99.90
39219;DHT22;24934;52.752;6.964;2023-09-12T07:40:18;19.50;99.90
39219;DHT22;24934;52.752;6.964;2023-09-12T07:42:43;19.40;99.90
39219;DHT22;24934;52.752;6.964;2023-09-12T07:45:09;19.50;99.90
39219;DHT22;24934;52.752;6.964;2023-09-12T07:47:35;19.40;99.90
39219;DHT22;24934;52.752;6.964;2023-09-12T07:50:01;19.40;99.90
39219;DHT22;24934;52.752;6.964;2023-09-12T07:52:27;19.40;99.90
39219;DHT22;24934;52.752;6.964;2023-09-12T07:54:59;19.30;99.90
39219;DHT22;24934;52.752;6.964;2023-09-12T07:57:28;19.20;99.90
39219;DHT22;24934;52.752;6.964;2023-09-12T07:59:57;19.20;99.90
39219;DHT22;24934;52.752;6.964;2023-09-12T08:02:23;19.20;99.90
39219;DHT22;24934;52.752;6.964;2023-09-12T08:04:49;19.30;99.90
39219;DHT22;24934;52.752;6.964;2023-09-12T08:07:30;19.30;99.90
39219;DHT22;24934;52.752;6.964;2023-09-12T08:09:57;19.30;99.90
39219;DHT22;24934;52.752;6.964;2023-09-12T08:12:26;19.30;99.90
39219;DHT22;24934;52.752;6.964;2023-09-12T08:14:52;19.50;99.90
39219;DHT22;24934;52.752;6.964;2023-09-12T08:17:18;19.70;99.90
39219;DHT22;24934;52.752;6.964;2023-09-12T08:19:44;19.90;99.90
39219;DHT22;24934;52.752;6.964;2023-09-12T08:22:11;20.00;99.90
39219;DHT22;24934;52.752;6.964;2023-09-12T08:24:38;20.10;99.90
39219;DHT22;24934;52.752;6.964;2023-09-12T08:27:05;20.20;99.90
39219;DHT22;24934;52.752;6.964;2023-09-12T08:29:32;20.40;99.90
39219;DHT22;24934;52.752;6.964;2023-09-12T08:31:58;20.50;99.90
39219;DHT22;24934;52.752;6.964;2023-09-12T08:34:24;20.40;99.90
39219;DHT22;24934;52.752;6.964;2023-09-12T08:36:50;20.30;99.90
39219;DHT22;24934;52.752;6.964;2023-09-12T08:39:24;20.30;99.90
39219;DHT22;24934;52.752;6.964;2023-09-12T08:41:50;20.30;99.90
39219;DHT22;24934;52.752;6.964;2023-09-12T08:44:20;20.30;99.90
39219;DHT22;24934;52.752;6.964;2023-09-12T08:46:49;20.20;99.90
39219;DHT22;24934;52.752;6.964;2023-09-12T08:49:15;20.30;99.90
39219;DHT22;24934;52.752;6.964;2023-09-12T08:51:41;20.40;99.90
39219;DHT22;24934;52.752;6.964;2023-09-12T08:54:07;20.50;99.90
39219;DHT22;24934;52.752;6.964;2023-09-12T08:56:36;20.60;99.90
39219;DHT22;24934;52.752;6.964;2023-09-12T08:59:05;20.70;99.90
39219;DHT22;24934;52.752;6.964;2023-09-12T09:01:32;20.80;99.90
39219;DHT22;24934;52.752;6.964;2023-09-12T09:04:01;20.70;99.90
39219;DHT22;24934;52.752;6.964;2023-09-12T09:06:30;20.80;99.90
39219;DHT22;24934;52.752;6.964;2023-09-12T09:08:56;20.80;99.90
39219;DHT22;24934;52.752;6.964;2023-09-12T09:11:22;20.80;99.90
39219;DHT22;24934;52.752;6.964;2023-09-12T09:13:48;20.80;99.90
39219;DHT22;24934;52.752;6.964;2023-09-12T09:16:15;20.90;99.90
39219;DHT22;24934;52.752;6.964;2023-09-12T09:18:55;21.00;99.90
39219;DHT22;24934;52.752;6.964;2023-09-12T09:21:23;21.10;99.90
39219;DHT22;24934;52.752;6.964;2023-09-12T09:23:54;21.20;99.90
39219;DHT22;24934;52.752;6.964;2023-09-12T09:26:20;21.30;99.90
39219;DHT22;24934;52.752;6.964;2023-09-12T09:29:01;21.30;99.90
39219;DHT22;24934;52.752;6.964;2023-09-12T09:31:28;21.40;99.90
39219;DHT22;24934;52.752;6.964;2023-09-12T09:33:54;21.60;99.90
39219;DHT22;24934;52.752;6.964;2023-09-12T09:36:20;21.70;99.90
39219;DHT22;24934;52.752;6.964;2023-09-12T09:38:46;21.70;99.90
39219;DHT22;24934;52.752;6.964;2023-09-12T09:41:12;21.90;99.90
39219;DHT22;24934;52.752;6.964;2023-09-12T09:43:38;22.00;99.90
39219;DHT22;24934;52.752;6.964;2023-09-12T09:46:03;22.10;99.90
39219;DHT22;24934;52.752;6.964;2023-09-12T09:48:29;22.10;99.90
39219;DHT22;24934;52.752;6.964;2023-09-12T09:51:02;22.20;99.90
39219;DHT22;24934;52.752;6.964;2023-09-12T09:53:31;22.20;99.90
39219;DHT22;24934;52.752;6.964;2023-09-12T09:56:12;22.30;99.90
39219;DHT22;24934;52.752;6.964;2023-09-12T09:58:48;22.40;99.90
39219;DHT22;24934;52.752;6.964;2023-09-12T10:01:17;22.50;99.90
39219;DHT22;24934;52.752;6.964;2023-09-12T10:03:47;22.60;99.90
39219;DHT22;24934;52.752;6.964;2023-09-12T10:06:18;22.90;99.90
39219;DHT22;24934;52.752;6.964;2023-09-12T10:08:46;23.30;99.90
39219;DHT22;24934;52.752;6.964;2023-09-12T10:11:14;23.70;99.90
39219;DHT22;24934;52.752;6.964;2023-09-12T10:13:46;24.10;99.90
39219;DHT22;24934;52.752;6.964;2023-09-12T10:16:13;24.40;99.90
39219;DHT22;24934;52.752;6.964;2023-09-12T10:18:49;24.80;99.90
39219;DHT22;24934;52.752;6.964;2023-09-12T10:21:29;25.90;99.90
39219;DHT22;24934;52.752;6.964;2023-09-12T10:23:58;27.00;99.90
39219;DHT22;24934;52.752;6.964;2023-09-12T10:26:24;27.70;99.90
39219;DHT22;24934;52.752;6.964;2023-09-12T10:28:51;28.30;99.90
39219;DHT22;24934;52.752;6.964;2023-09-12T10:31:17;28.50;99.90
39219;DHT22;24934;52.752;6.964;2023-09-12T10:33:43;28.90;99.90
39219;DHT22;24934;52.752;6.964;2023-09-12T10:36:12;28.70;99.90
39219;DHT22;24934;52.752;6.964;2023-09-12T10:38:42;28.60;99.90
39219;DHT22;24934;52.752;6.964;2023-09-12T10:41:12;29.00;99.90
39219;DHT22;24934;52.752;6.964;2023-09-12T10:43:44;29.00;99.90
39219;DHT22;24934;52.752;6.964;2023-09-12T10:46:15;28.90;99.90
39219;DHT22;24934;52.752;6.964;2023-09-12T10:48:42;28.50;99.90
39219;DHT22;24934;52.752;6.964;2023-09-12T10:51:11;27.70;99.90
39219;DHT22;24934;52.752;6.964;2023-09-12T10:53:39;27.50;99.90
39219;DHT22;24934;52.752;6.964;2023-09-12T10:56:21;27.20;99.90
39219;DHT22;24934;52.752;6.964;2023-09-12T11:01:35;27.10;99.90
39219;DHT22;24934;52.752;6.964;2023-09-12T11:06:53;26.90;99.90
39219;DHT22;24934;52.752;6.964;2023-09-12T11:09:25;26.40;99.90
39219;DHT22;24934;52.752;6.964;2023-09-12T11:12:03;26.60;99.90
39219;DHT22;24934;52.752;6.964;2023-09-12T11:15:05;27.00;99.90
39219;DHT22;24934;52.752;6.964;2023-09-12T11:17:37;27.30;99.90
39219;DHT22;24934;52.752;6.964;2023-09-12T11:20:07;27.60;99.90
39219;DHT22;24934;52.752;6.964;2023-09-12T11:22:37;27.90;99.90
39219;DHT22;24934;52.752;6.964;2023-09-12T11:25:15;27.70;99.90
39219;DHT22;24934;52.752;6.964;2023-09-12T11:28:06;27.70;99.90
39219;DHT22;24934;52.752;6.964;2023-09-12T11:30:31;27.80;99.90
39219;DHT22;24934;52.752;6.964;2023-09-12T11:32:58;27.80;99.90
39219;DHT22;24934;52.752;6.964;2023-09-12T11:35:28;28.20;99.90
39219;DHT22;24934;52.752;6.964;2023-09-12T11:37:58;28.80;99.90
39219;DHT22;24934;52.752;6.964;2023-09-12T11:43:03;28.80;99.90
39219;DHT22;24934;52.752;6.964;2023-09-12T11:45:31;28.70;99.90
39219;DHT22;24934;52.752;6.964;2023-09-12T11:47:58;28.00;99.90
39219;DHT22;24934;52.752;6.964;2023-09-12T11:55:43;26.80;99.90
39219;DHT22;24934;52.752;6.964;2023-09-12T11:58:21;26.50;99.90
39219;DHT22;24934;52.752;6.964;2023-09-12T12:00:54;26.40;99.90
39219;DHT22;24934;52.752;6.964;2023-09-12T12:03:21;26.30;99.90
39219;DHT22;24934;52.752;6.964;2023-09-12T12:05:48;26.30;99.90
39219;DHT22;24934;52.752;6.964;2023-09-12T12:08:14;26.50;99.90
39219;DHT22;24934;52.752;6.964;2023-09-12T12:10:41;26.40;99.90
39219;DHT22;24934;52.752;6.964;2023-09-12T12:13:11;26.40;99.90
39219;DHT22;24934;52.752;6.964;2023-09-12T12:15:37;26.40;99.90
39219;DHT22;24934;52.752;6.964;2023-09-12T12:18:05;26.50;99.90
39219;DHT22;24934;52.752;6.964;2023-09-12T12:20:31;26.40;99.90
39219;DHT22;24934;52.752;6.964;2023-09-12T12:22:56;26.50;99.90
39219;DHT22;24934;52.752;6.964;2023-09-12T12:25:25;26.80;99.90
39219;DHT22;24934;52.752;6.964;2023-09-12T12:27:52;26.90;99.90
39219;DHT22;24934;52.752;6.964;2023-09-12T12:30:19;27.10;99.90
39219;DHT22;24934;52.752;6.964;2023-09-12T12:32:51;27.50;99.90
39219;DHT22;24934;52.752;6.964;2023-09-12T12:35:21;28.00;99.90
39219;DHT22;24934;52.752;6.964;2023-09-12T12:37:55;28.30;99.90
39219;DHT22;24934;52.752;6.964;2023-09-12T12:40:21;28.90;99.90
39219;DHT22;24934;52.752;6.964;2023-09-12T12:42:49;28.90;99.90
39219;DHT22;24934;52.752;6.964;2023-09-12T12:45:22;29.00;99.90
39219;DHT22;24934;52.752;6.964;2023-09-12T12:48:07;29.10;99.90
39219;DHT22;24934;52.752;6.964;2023-09-12T12:50:35;29.30;99.90
39219;DHT22;24934;52.752;6.964;2023-09-12T12:53:04;29.50;99.90
39219;DHT22;24934;52.752;6.964;2023-09-12T12:55:30;29.40;99.90
39219;DHT22;24934;52.752;6.964;2023-09-12T12:57:56;29.70;99.90
39219;DHT22;24934;52.752;6.964;2023-09-12T13:00:21;29.50;99.90
39219;DHT22;24934;52.752;6.964;2023-09-12T13:02:48;29.00;99.90
39219;DHT22;24934;52.752;6.964;2023-09-12T13:07:52;28.20;99.90
39219;DHT22;24934;52.752;6.964;2023-09-12T13:10:21;27.80;99.90
39219;DHT22;24934;52.752;6.964;2023-09-12T13:12:48;27.80;99.90
39219;DHT22;24934;52.752;6.964;2023-09-12T13:15:14;27.60;99.90
39219;DHT22;24934;52.752;6.964;2023-09-12T13:17:44;27.50;99.90
39219;DHT22;24934;52.752;6.964;2023-09-12T13:20:11;27.70;99.90
39219;DHT22;24934;52.752;6.964;2023-09-12T13:22:37;27.60;99.90
39219;DHT22;24934;52.752;6.964;2023-09-12T13:25:04;27.70;99.90
39219;DHT22;24934;52.752;6.964;2023-09-12T13:27:33;27.60;99.90
39219;DHT22;24934;52.752;6.964;2023-09-12T13:29:58;27.50;99.90
39219;DHT22;24934;52.752;6.964;2023-09-12T13:32:24;27.50;99.90
39219;DHT22;24934;52.752;6.964;2023-09-12T13:34:53;27.30;99.90
39219;DHT22;24934;52.752;6.964;2023-09-12T13:37:19;27.30;99.90
39219;DHT22;24934;52.752;6.964;2023-09-12T13:39:46;27.20;99.90
39219;DHT22;24934;52.752;6.964;2023-09-12T13:42:14;27.10;99.90
39219;DHT22;24934;52.752;6.964;2023-09-12T13:44:44;27.20;99.90
39219;DHT22;24934;52.752;6.964;2023-09-12T13:47:12;27.40;99.90
39219;DHT22;24934;52.752;6.964;2023-09-12T13:49:38;27.90;99.90
39219;DHT22;24934;52.752;6.964;2023-09-12T13:52:03;28.20;99.90
39219;DHT22;24934;52.752;6.964;2023-09-12T13:54:29;28.30;99.90
39219;DHT22;24934;52.752;6.964;2023-09-12T13:56:55;28.30;99.90
39219;DHT22;24934;52.752;6.964;2023-09-12T13:59:21;28.50;99.90
39219;DHT22;24934;52.752;6.964;2023-09-12T14:01:46;28.20;99.90
39219;DHT22;24934;52.752;6.964;2023-09-12T14:04:12;27.80;99.90
39219;DHT22;24934;52.752;6.964;2023-09-12T14:06:39;27.60;99.90
39219;DHT22;24934;52.752;6.964;2023-09-12T14:09:05;27.40;99.90
39219;DHT22;24934;52.752;6.964;2023-09-12T14:11:31;27.40;99.90
39219;DHT22;24934;52.752;6.964;2023-09-12T14:13:56;27.30;99.90
39219;DHT22;24934;52.752;6.964;2023-09-12T14:16:22;27.60;99.90
39219;DHT22;24934;52.752;6.964;2023-09-12T14:18:48;28.00;99.90
39219;DHT22;24934;52.752;6.964;2023-09-12T14:21:13;28.30;99.90
39219;DHT22;24934;52.752;6.964;2023-09-12T14:23:39;28.30;99.90
39219;DHT22;24934;52.752;6.964;2023-09-12T14:26:04;28.30;99.90
39219;DHT22;24934;52.752;6.964;2023-09-12T14:28:30;27.90;99.90
39219;DHT22;24934;52.752;6.964;2023-09-12T14:30:57;27.70;99.90
39219;DHT22;24934;52.752;6.964;2023-09-12T14:33:23;27.40;99.90
39219;DHT22;24934;52.752;6.964;2023-09-12T14:35:51;27.30;99.90
39219;DHT22;24934;52.752;6.964;2023-09-12T14:38:17;27.00;99.90
39219;DHT22;24934;52.752;6.964;2023-09-12T14:40:42;26.80;99.90
39219;DHT22;24934;52.752;6.964;2023-09-12T14:43:08;26.80;99.90
39219;DHT22;24934;52.752;6.964;2023-09-12T14:45:34;26.50;99.90
39219;DHT22;24934;52.752;6.964;2023-09-12T14:47:59;26.40;99.90
39219;DHT22;24934;52.752;6.964;2023-09-12T14:50:25;26.30;99.90
39219;DHT22;24934;52.752;6.964;2023-09-12T14:52:54;26.30;99.90
39219;DHT22;24934;52.752;6.964;2023-09-12T14:55:20;26.40;99.90
39219;DHT22;24934;52.752;6.964;2023-09-12T14:57:46;26.70;99.90
39219;DHT22;24934;52.752;6.964;2023-09-12T15:00:12;26.70;99.90
39219;DHT22;24934;52.752;6.964;2023-09-12T15:02:37;26.70;99.90
39219;DHT22;24934;52.752;6.964;2023-09-12T15:05:03;27.10;99.90
39219;DHT22;24934;52.752;6.964;2023-09-12T15:07:29;27.30;99.90
39219;DHT22;24934;52.752;6.964;2023-09-12T15:09:56;27.60;99.90
39219;DHT22;24934;52.752;6.964;2023-09-12T15:12:22;27.80;99.90
39219;DHT22;24934;52.752;6.964;2023-09-12T15:14:49;27.70;99.90
39219;DHT22;24934;52.752;6.964;2023-09-12T15:17:15;27.50;99.90
39219;DHT22;24934;52.752;6.964;2023-09-12T15:19:41;27.20;99.90
39219;DHT22;24934;52.752;6.964;2023-09-12T15:22:08;27.00;99.90
39219;DHT22;24934;52.752;6.964;2023-09-12T15:24:33;26.70;99.90
39219;DHT22;24934;52.752;6.964;2023-09-12T15:27:02;26.60;99.90
39219;DHT22;24934;52.752;6.964;2023-09-12T15:29:33;26.40;99.90
39219;DHT22;24934;52.752;6.964;2023-09-12T15:31:59;26.20;99.90
39219;DHT22;24934;52.752;6.964;2023-09-12T15:34:28;26.00;99.90
39219;DHT22;24934;52.752;6.964;2023-09-12T15:37:10;25.90;99.90
39219;DHT22;24934;52.752;6.964;2023-09-12T15:39:36;25.70;99.90
39219;DHT22;24934;52.752;6.964;2023-09-12T15:42:06;25.70;99.90
39219;DHT22;24934;52.752;6.964;2023-09-12T15:44:32;25.60;99.90
39219;DHT22;24934;52.752;6.964;2023-09-12T15:46:57;25.70;99.90
39219;DHT22;24934;52.752;6.964;2023-09-12T15:49:26;25.50;99.90
39219;DHT22;24934;52.752;6.964;2023-09-12T15:51:56;25.60;99.90